sensor_id;sensor_type;location;lat;lon;timestamp;P1;durP1;ratioP1;P2;durP2;ratioP2
6348;SDS011;3207;42.648;23.406;2023-03-23T00:01:21;6.55;;;5.90;;
6348;SDS011;3207;42.648;23.406;2023-03-23T00:03:52;8.82;;;6.50;;
6348;SDS011;3207;42.648;23.406;2023-03-23T00:06:22;10.98;;;6.80;;
6348;SDS011;3207;42.648;23.406;2023-03-23T00:08:51;9.75;;;6.13;;
6348;SDS011;3207;42.648;23.406;2023-03-23T00:11:26;8.85;;;5.90;;
6348;SDS011;3207;42.648;23.406;2023-03-23T00:13:55;7.47;;;6.43;;
6348;SDS011;3207;42.648;23.406;2023-03-23T00:16:26;7.45;;;6.35;;
6348;SDS011;3207;42.648;23.406;2023-03-23T00:18:56;11.20;;;6.50;;
6348;SDS011;3207;42.648;23.406;2023-03-23T00:21:24;7.18;;;5.70;;
6348;SDS011;3207;42.648;23.406;2023-03-23T00:23:58;12.25;;;6.47;;
6348;SDS011;3207;42.648;23.406;2023-03-23T00:26:27;8.15;;;6.38;;
6348;SDS011;3207;42.648;23.406;2023-03-23T00:28:58;8.20;;;5.78;;
6348;SDS011;3207;42.648;23.406;2023-03-23T00:31:26;8.15;;;6.53;;
6348;SDS011;3207;42.648;23.406;2023-03-23T00:33:56;8.82;;;6.85;;
6348;SDS011;3207;42.648;23.406;2023-03-23T00:36:26;7.82;;;6.13;;
6348;SDS011;3207;42.648;23.406;2023-03-23T00:38:53;8.63;;;6.38;;
6348;SDS011;3207;42.648;23.406;2023-03-23T00:41:24;11.18;;;6.95;;
6348;SDS011;3207;42.648;23.406;2023-03-23T00:43:54;8.30;;;6.68;;
6348;SDS011;3207;42.648;23.406;2023-03-23T00:46:22;9.30;;;7.60;;
6348;SDS011;3207;42.648;23.406;2023-03-23T00:48:49;12.65;;;7.43;;
6348;SDS011;3207;42.648;23.406;2023-03-23T00:51:17;8.73;;;7.05;;
6348;SDS011;3207;42.648;23.406;2023-03-23T00:53:44;8.70;;;6.82;;
6348;SDS011;3207;42.648;23.406;2023-03-23T00:56:11;9.13;;;6.88;;
6348;SDS011;3207;42.648;23.406;2023-03-23T00:58:38;10.70;;;6.75;;
6348;SDS011;3207;42.648;23.406;2023-03-23T01:01:07;10.45;;;6.70;;
6348;SDS011;3207;42.648;23.406;2023-03-23T01:03:34;11.75;;;7.00;;
6348;SDS011;3207;42.648;23.406;2023-03-23T01:06:06;10.80;;;7.18;;
6348;SDS011;3207;42.648;23.406;2023-03-23T01:08:37;7.95;;;6.22;;
6348;SDS011;3207;42.648;23.406;2023-03-23T01:11:10;8.48;;;6.75;;
6348;SDS011;3207;42.648;23.406;2023-03-23T01:13:38;9.50;;;6.45;;
6348;SDS011;3207;42.648;23.406;2023-03-23T01:16:07;11.77;;;7.07;;
6348;SDS011;3207;42.648;23.406;2023-03-23T01:18:35;8.90;;;7.18;;
6348;SDS011;3207;42.648;23.406;2023-03-23T01:21:05;10.23;;;6.80;;
6348;SDS011;3207;42.648;23.406;2023-03-23T01:23:34;8.18;;;6.00;;
6348;SDS011;3207;42.648;23.406;2023-03-23T01:26:04;9.73;;;6.53;;
6348;SDS011;3207;42.648;23.406;2023-03-23T01:28:32;10.43;;;7.15;;
6348;SDS011;3207;42.648;23.406;2023-03-23T01:31:00;7.53;;;5.60;;
6348;SDS011;3207;42.648;23.406;2023-03-23T01:33:29;7.90;;;6.03;;
6348;SDS011;3207;42.648;23.406;2023-03-23T01:35:56;7.47;;;5.78;;
6348;SDS011;3207;42.648;23.406;2023-03-23T01:38:23;6.30;;;5.53;;
6348;SDS011;3207;42.648;23.406;2023-03-23T01:40:50;7.07;;;6.22;;
6348;SDS011;3207;42.648;23.406;2023-03-23T01:43:17;6.63;;;5.60;;
6348;SDS011;3207;42.648;23.406;2023-03-23T01:45:44;7.97;;;5.55;;
6348;SDS011;3207;42.648;23.406;2023-03-23T01:48:13;6.68;;;5.88;;
6348;SDS011;3207;42.648;23.406;2023-03-23T01:50:47;7.50;;;5.57;;
6348;SDS011;3207;42.648;23.406;2023-03-23T01:53:20;5.82;;;5.13;;
6348;SDS011;3207;42.648;23.406;2023-03-23T01:55:49;10.55;;;6.07;;
6348;SDS011;3207;42.648;23.406;2023-03-23T01:58:20;7.55;;;5.70;;
6348;SDS011;3207;42.648;23.406;2023-03-23T02:00:50;6.60;;;5.10;;
6348;SDS011;3207;42.648;23.406;2023-03-23T02:03:18;7.40;;;5.03;;
6348;SDS011;3207;42.648;23.406;2023-03-23T02:05:49;6.40;;;4.93;;
6348;SDS011;3207;42.648;23.406;2023-03-23T02:08:17;7.90;;;5.93;;
6348;SDS011;3207;42.648;23.406;2023-03-23T02:10:45;6.68;;;5.63;;
6348;SDS011;3207;42.648;23.406;2023-03-23T02:13:12;6.88;;;5.43;;
6348;SDS011;3207;42.648;23.406;2023-03-23T02:15:47;5.75;;;4.85;;
6348;SDS011;3207;42.648;23.406;2023-03-23T02:18:27;8.13;;;5.28;;
6348;SDS011;3207;42.648;23.406;2023-03-23T02:24:12;7.80;;;5.18;;
6348;SDS011;3207;42.648;23.406;2023-03-23T02:26:58;7.00;;;4.88;;
6348;SDS011;3207;42.648;23.406;2023-03-23T02:32:41;8.10;;;4.88;;
6348;SDS011;3207;42.648;23.406;2023-03-23T02:35:41;5.72;;;5.22;;
6348;SDS011;3207;42.648;23.406;2023-03-23T02:38:13;7.50;;;4.80;;
6348;SDS011;3207;42.648;23.406;2023-03-23T02:40:43;9.13;;;5.78;;
6348;SDS011;3207;42.648;23.406;2023-03-23T02:43:13;6.30;;;4.72;;
6348;SDS011;3207;42.648;23.406;2023-03-23T02:45:43;6.00;;;5.07;;
6348;SDS011;3207;42.648;23.406;2023-03-23T02:48:14;5.63;;;4.60;;
6348;SDS011;3207;42.648;23.406;2023-03-23T02:50:47;7.80;;;5.80;;
6348;SDS011;3207;42.648;23.406;2023-03-23T02:53:18;6.65;;;5.15;;
6348;SDS011;3207;42.648;23.406;2023-03-23T02:55:48;7.10;;;4.63;;
6348;SDS011;3207;42.648;23.406;2023-03-23T02:58:18;7.05;;;5.68;;
6348;SDS011;3207;42.648;23.406;2023-03-23T03:00:45;6.40;;;5.78;;
6348;SDS011;3207;42.648;23.406;2023-03-23T03:03:16;10.38;;;6.03;;
6348;SDS011;3207;42.648;23.406;2023-03-23T03:05:49;10.30;;;6.70;;
6348;SDS011;3207;42.648;23.406;2023-03-23T03:08:26;6.78;;;5.97;;
6348;SDS011;3207;42.648;23.406;2023-03-23T03:11:02;5.65;;;5.05;;
6348;SDS011;3207;42.648;23.406;2023-03-23T03:13:33;7.97;;;5.50;;
6348;SDS011;3207;42.648;23.406;2023-03-23T03:16:07;5.75;;;5.05;;
6348;SDS011;3207;42.648;23.406;2023-03-23T03:18:44;5.78;;;5.10;;
6348;SDS011;3207;42.648;23.406;2023-03-23T03:21:17;9.05;;;4.53;;
6348;SDS011;3207;42.648;23.406;2023-03-23T03:26:21;5.03;;;4.53;;
6348;SDS011;3207;42.648;23.406;2023-03-23T03:28:52;5.25;;;4.75;;
6348;SDS011;3207;42.648;23.406;2023-03-23T03:31:21;5.82;;;5.03;;
6348;SDS011;3207;42.648;23.406;2023-03-23T03:33:53;5.93;;;4.85;;
6348;SDS011;3207;42.648;23.406;2023-03-23T03:36:21;6.28;;;4.80;;
6348;SDS011;3207;42.648;23.406;2023-03-23T03:38:51;5.32;;;4.65;;
6348;SDS011;3207;42.648;23.406;2023-03-23T03:41:18;5.22;;;4.30;;
6348;SDS011;3207;42.648;23.406;2023-03-23T03:43:46;6.35;;;5.13;;
6348;SDS011;3207;42.648;23.406;2023-03-23T03:46:13;7.25;;;5.13;;
6348;SDS011;3207;42.648;23.406;2023-03-23T03:48:39;5.93;;;4.95;;
6348;SDS011;3207;42.648;23.406;2023-03-23T03:51:08;6.57;;;4.63;;
6348;SDS011;3207;42.648;23.406;2023-03-23T03:53:35;5.00;;;4.50;;
6348;SDS011;3207;42.648;23.406;2023-03-23T03:56:02;5.95;;;4.95;;
6348;SDS011;3207;42.648;23.406;2023-03-23T03:58:30;5.88;;;4.78;;
6348;SDS011;3207;42.648;23.406;2023-03-23T04:00:57;6.25;;;4.88;;
6348;SDS011;3207;42.648;23.406;2023-03-23T04:03:25;8.73;;;5.30;;
6348;SDS011;3207;42.648;23.406;2023-03-23T04:05:53;7.57;;;5.28;;
6348;SDS011;3207;42.648;23.406;2023-03-23T04:08:22;5.97;;;4.57;;
6348;SDS011;3207;42.648;23.406;2023-03-23T04:10:49;6.55;;;4.57;;
6348;SDS011;3207;42.648;23.406;2023-03-23T04:13:16;6.88;;;4.75;;
6348;SDS011;3207;42.648;23.406;2023-03-23T04:15:43;5.63;;;5.03;;
6348;SDS011;3207;42.648;23.406;2023-03-23T04:18:10;6.20;;;4.82;;
6348;SDS011;3207;42.648;23.406;2023-03-23T04:20:40;5.93;;;4.97;;
6348;SDS011;3207;42.648;23.406;2023-03-23T04:23:07;4.95;;;4.45;;
6348;SDS011;3207;42.648;23.406;2023-03-23T04:25:35;5.63;;;4.70;;
6348;SDS011;3207;42.648;23.406;2023-03-23T04:28:02;10.73;;;5.05;;
6348;SDS011;3207;42.648;23.406;2023-03-23T04:30:29;6.15;;;4.75;;
6348;SDS011;3207;42.648;23.406;2023-03-23T04:32:57;5.93;;;4.85;;
6348;SDS011;3207;42.648;23.406;2023-03-23T04:35:25;5.85;;;5.13;;
6348;SDS011;3207;42.648;23.406;2023-03-23T04:37:54;5.95;;;5.35;;
6348;SDS011;3207;42.648;23.406;2023-03-23T04:40:21;4.85;;;4.43;;
6348;SDS011;3207;42.648;23.406;2023-03-23T04:42:50;7.75;;;4.95;;
6348;SDS011;3207;42.648;23.406;2023-03-23T04:45:22;7.25;;;5.35;;
6348;SDS011;3207;42.648;23.406;2023-03-23T04:47:50;8.40;;;4.95;;
6348;SDS011;3207;42.648;23.406;2023-03-23T04:50:22;5.55;;;4.35;;
6348;SDS011;3207;42.648;23.406;2023-03-23T04:52:51;7.90;;;5.10;;
6348;SDS011;3207;42.648;23.406;2023-03-23T04:55:19;5.88;;;5.03;;
6348;SDS011;3207;42.648;23.406;2023-03-23T04:57:46;6.45;;;4.40;;
6348;SDS011;3207;42.648;23.406;2023-03-23T05:00:15;6.10;;;4.77;;
6348;SDS011;3207;42.648;23.406;2023-03-23T05:02:43;5.40;;;4.55;;
6348;SDS011;3207;42.648;23.406;2023-03-23T05:05:12;5.38;;;4.82;;
6348;SDS011;3207;42.648;23.406;2023-03-23T05:07:40;7.53;;;4.85;;
6348;SDS011;3207;42.648;23.406;2023-03-23T05:10:09;7.43;;;6.07;;
6348;SDS011;3207;42.648;23.406;2023-03-23T05:12:38;9.48;;;5.75;;
6348;SDS011;3207;42.648;23.406;2023-03-23T05:15:05;6.30;;;5.10;;
6348;SDS011;3207;42.648;23.406;2023-03-23T05:17:35;6.82;;;5.30;;
6348;SDS011;3207;42.648;23.406;2023-03-23T05:20:05;5.43;;;4.80;;
6348;SDS011;3207;42.648;23.406;2023-03-23T05:22:34;6.88;;;5.03;;
6348;SDS011;3207;42.648;23.406;2023-03-23T05:25:01;9.75;;;5.57;;
6348;SDS011;3207;42.648;23.406;2023-03-23T05:27:29;7.32;;;5.68;;
6348;SDS011;3207;42.648;23.406;2023-03-23T05:29:57;5.22;;;4.72;;
6348;SDS011;3207;42.648;23.406;2023-03-23T05:32:25;11.40;;;5.53;;
6348;SDS011;3207;42.648;23.406;2023-03-23T05:34:56;9.52;;;6.10;;
6348;SDS011;3207;42.648;23.406;2023-03-23T05:37:22;8.40;;;6.30;;
6348;SDS011;3207;42.648;23.406;2023-03-23T05:39:50;9.45;;;7.57;;
6348;SDS011;3207;42.648;23.406;2023-03-23T05:42:18;10.68;;;6.95;;
6348;SDS011;3207;42.648;23.406;2023-03-23T05:44:45;13.68;;;8.85;;
6348;SDS011;3207;42.648;23.406;2023-03-23T05:47:13;11.75;;;8.50;;
6348;SDS011;3207;42.648;23.406;2023-03-23T05:49:39;12.75;;;9.73;;
6348;SDS011;3207;42.648;23.406;2023-03-23T05:52:08;14.30;;;9.73;;
6348;SDS011;3207;42.648;23.406;2023-03-23T05:54:35;14.70;;;10.25;;
6348;SDS011;3207;42.648;23.406;2023-03-23T05:57:02;15.40;;;10.20;;
6348;SDS011;3207;42.648;23.406;2023-03-23T05:59:30;12.75;;;9.93;;
6348;SDS011;3207;42.648;23.406;2023-03-23T06:01:58;13.93;;;10.93;;
6348;SDS011;3207;42.648;23.406;2023-03-23T06:04:25;14.98;;;11.57;;
6348;SDS011;3207;42.648;23.406;2023-03-23T06:06:52;19.52;;;14.55;;
6348;SDS011;3207;42.648;23.406;2023-03-23T06:09:21;18.10;;;14.32;;
6348;SDS011;3207;42.648;23.406;2023-03-23T06:11:49;19.00;;;14.32;;
6348;SDS011;3207;42.648;23.406;2023-03-23T06:14:15;17.70;;;13.63;;
6348;SDS011;3207;42.648;23.406;2023-03-23T06:16:42;18.00;;;14.93;;
6348;SDS011;3207;42.648;23.406;2023-03-23T06:19:09;18.77;;;13.65;;
6348;SDS011;3207;42.648;23.406;2023-03-23T06:21:36;19.98;;;15.85;;
6348;SDS011;3207;42.648;23.406;2023-03-23T06:24:03;23.83;;;14.35;;
6348;SDS011;3207;42.648;23.406;2023-03-23T06:26:32;18.92;;;14.15;;
6348;SDS011;3207;42.648;23.406;2023-03-23T06:29:01;14.60;;;13.05;;
6348;SDS011;3207;42.648;23.406;2023-03-23T06:31:35;16.55;;;14.50;;
6348;SDS011;3207;42.648;23.406;2023-03-23T06:34:05;15.10;;;13.35;;
6348;SDS011;3207;42.648;23.406;2023-03-23T06:36:32;22.75;;;12.98;;
6348;SDS011;3207;42.648;23.406;2023-03-23T06:38:59;20.15;;;13.40;;
6348;SDS011;3207;42.648;23.406;2023-03-23T06:41:26;15.32;;;13.48;;
6348;SDS011;3207;42.648;23.406;2023-03-23T06:43:54;15.18;;;13.55;;
6348;SDS011;3207;42.648;23.406;2023-03-23T06:46:21;16.00;;;12.75;;
6348;SDS011;3207;42.648;23.406;2023-03-23T06:48:48;21.45;;;14.20;;
6348;SDS011;3207;42.648;23.406;2023-03-23T06:51:16;14.82;;;13.32;;
6348;SDS011;3207;42.648;23.406;2023-03-23T06:53:44;14.57;;;13.13;;
6348;SDS011;3207;42.648;23.406;2023-03-23T06:56:11;16.98;;;13.05;;
6348;SDS011;3207;42.648;23.406;2023-03-23T06:58:38;14.68;;;13.13;;
6348;SDS011;3207;42.648;23.406;2023-03-23T07:01:08;16.55;;;12.05;;
6348;SDS011;3207;42.648;23.406;2023-03-23T07:03:35;14.82;;;12.93;;
6348;SDS011;3207;42.648;23.406;2023-03-23T07:06:03;21.17;;;15.13;;
6348;SDS011;3207;42.648;23.406;2023-03-23T07:08:30;19.25;;;14.75;;
6348;SDS011;3207;42.648;23.406;2023-03-23T07:10:57;16.98;;;15.18;;
6348;SDS011;3207;42.648;23.406;2023-03-23T07:13:24;20.20;;;16.55;;
6348;SDS011;3207;42.648;23.406;2023-03-23T07:15:51;18.42;;;16.52;;
6348;SDS011;3207;42.648;23.406;2023-03-23T07:18:20;18.95;;;17.15;;
6348;SDS011;3207;42.648;23.406;2023-03-23T07:20:47;17.45;;;15.60;;
6348;SDS011;3207;42.648;23.406;2023-03-23T07:23:14;19.35;;;17.15;;
6348;SDS011;3207;42.648;23.406;2023-03-23T07:25:42;20.73;;;17.67;;
6348;SDS011;3207;42.648;23.406;2023-03-23T07:28:09;21.55;;;18.30;;
6348;SDS011;3207;42.648;23.406;2023-03-23T07:30:37;20.90;;;18.75;;
6348;SDS011;3207;42.648;23.406;2023-03-23T07:33:04;21.08;;;18.98;;
6348;SDS011;3207;42.648;23.406;2023-03-23T07:35:33;21.65;;;19.35;;
6348;SDS011;3207;42.648;23.406;2023-03-23T07:37:59;21.58;;;19.50;;
6348;SDS011;3207;42.648;23.406;2023-03-23T07:40:27;22.48;;;19.40;;
6348;SDS011;3207;42.648;23.406;2023-03-23T07:42:58;28.10;;;21.85;;
6348;SDS011;3207;42.648;23.406;2023-03-23T07:45:25;21.90;;;19.85;;
6348;SDS011;3207;42.648;23.406;2023-03-23T07:47:53;25.27;;;21.40;;
6348;SDS011;3207;42.648;23.406;2023-03-23T07:50:20;22.92;;;20.75;;
6348;SDS011;3207;42.648;23.406;2023-03-23T07:52:50;21.73;;;19.73;;
6348;SDS011;3207;42.648;23.406;2023-03-23T07:55:17;26.83;;;19.77;;
6348;SDS011;3207;42.648;23.406;2023-03-23T07:57:44;23.08;;;20.70;;
6348;SDS011;3207;42.648;23.406;2023-03-23T08:00:12;23.23;;;20.83;;
6348;SDS011;3207;42.648;23.406;2023-03-23T08:02:44;21.98;;;19.73;;
6348;SDS011;3207;42.648;23.406;2023-03-23T08:05:11;29.67;;;19.55;;
6348;SDS011;3207;42.648;23.406;2023-03-23T08:07:39;20.38;;;18.40;;
6348;SDS011;3207;42.648;23.406;2023-03-23T08:10:09;20.33;;;18.27;;
6348;SDS011;3207;42.648;23.406;2023-03-23T08:12:37;19.83;;;18.08;;
6348;SDS011;3207;42.648;23.406;2023-03-23T08:15:05;20.33;;;18.48;;
6348;SDS011;3207;42.648;23.406;2023-03-23T08:17:33;19.05;;;17.23;;
6348;SDS011;3207;42.648;23.406;2023-03-23T08:20:01;19.65;;;17.92;;
6348;SDS011;3207;42.648;23.406;2023-03-23T08:22:36;21.60;;;19.13;;
6348;SDS011;3207;42.648;23.406;2023-03-23T08:25:03;24.70;;;18.50;;
6348;SDS011;3207;42.648;23.406;2023-03-23T08:27:33;19.73;;;17.45;;
6348;SDS011;3207;42.648;23.406;2023-03-23T08:30:01;20.77;;;18.67;;
6348;SDS011;3207;42.648;23.406;2023-03-23T08:32:28;20.67;;;18.95;;
6348;SDS011;3207;42.648;23.406;2023-03-23T08:34:55;18.83;;;17.08;;
6348;SDS011;3207;42.648;23.406;2023-03-23T08:37:22;18.90;;;17.23;;
6348;SDS011;3207;42.648;23.406;2023-03-23T08:39:50;16.92;;;15.52;;
6348;SDS011;3207;42.648;23.406;2023-03-23T08:42:18;16.17;;;14.88;;
6348;SDS011;3207;42.648;23.406;2023-03-23T08:44:46;16.48;;;15.07;;
6348;SDS011;3207;42.648;23.406;2023-03-23T08:47:13;16.25;;;14.57;;
6348;SDS011;3207;42.648;23.406;2023-03-23T08:49:41;15.38;;;13.98;;
6348;SDS011;3207;42.648;23.406;2023-03-23T08:52:08;15.25;;;13.95;;
6348;SDS011;3207;42.648;23.406;2023-03-23T08:54:35;16.40;;;15.00;;
6348;SDS011;3207;42.648;23.406;2023-03-23T08:57:03;15.00;;;13.70;;
6348;SDS011;3207;42.648;23.406;2023-03-23T08:59:30;13.23;;;12.02;;
6348;SDS011;3207;42.648;23.406;2023-03-23T09:01:58;14.27;;;13.07;;
6348;SDS011;3207;42.648;23.406;2023-03-23T09:04:25;13.48;;;12.15;;
6348;SDS011;3207;42.648;23.406;2023-03-23T09:06:54;13.68;;;11.35;;
6348;SDS011;3207;42.648;23.406;2023-03-23T09:09:22;13.27;;;12.10;;
6348;SDS011;3207;42.648;23.406;2023-03-23T09:11:49;14.25;;;12.90;;
6348;SDS011;3207;42.648;23.406;2023-03-23T09:14:16;11.25;;;10.15;;
6348;SDS011;3207;42.648;23.406;2023-03-23T09:16:42;10.98;;;9.57;;
6348;SDS011;3207;42.648;23.406;2023-03-23T09:19:11;12.57;;;10.00;;
6348;SDS011;3207;42.648;23.406;2023-03-23T09:21:38;11.10;;;10.05;;
6348;SDS011;3207;42.648;23.406;2023-03-23T09:24:05;10.25;;;9.35;;
6348;SDS011;3207;42.648;23.406;2023-03-23T09:26:32;9.23;;;8.30;;
6348;SDS011;3207;42.648;23.406;2023-03-23T09:28:59;10.13;;;8.57;;
6348;SDS011;3207;42.648;23.406;2023-03-23T09:31:26;8.85;;;8.15;;
6348;SDS011;3207;42.648;23.406;2023-03-23T09:33:53;8.30;;;7.45;;
6348;SDS011;3207;42.648;23.406;2023-03-23T09:36:23;8.35;;;7.65;;
6348;SDS011;3207;42.648;23.406;2023-03-23T09:38:52;7.40;;;6.90;;
6348;SDS011;3207;42.648;23.406;2023-03-23T09:44:22;6.38;;;5.90;;
6348;SDS011;3207;42.648;23.406;2023-03-23T09:46:56;7.05;;;6.43;;
6348;SDS011;3207;42.648;23.406;2023-03-23T09:49:29;8.23;;;6.72;;
6348;SDS011;3207;42.648;23.406;2023-03-23T09:52:01;6.85;;;6.18;;
6348;SDS011;3207;42.648;23.406;2023-03-23T09:54:37;6.25;;;5.53;;
6348;SDS011;3207;42.648;23.406;2023-03-23T09:57:11;6.47;;;5.88;;
6348;SDS011;3207;42.648;23.406;2023-03-23T09:59:44;6.60;;;6.10;;
6348;SDS011;3207;42.648;23.406;2023-03-23T10:02:16;5.95;;;5.53;;
6348;SDS011;3207;42.648;23.406;2023-03-23T10:04:45;5.82;;;5.25;;
6348;SDS011;3207;42.648;23.406;2023-03-23T10:07:16;6.07;;;5.55;;
6348;SDS011;3207;42.648;23.406;2023-03-23T10:09:45;7.95;;;5.78;;
6348;SDS011;3207;42.648;23.406;2023-03-23T10:12:21;5.70;;;5.25;;
6348;SDS011;3207;42.648;23.406;2023-03-23T10:15:07;8.23;;;4.93;;
6348;SDS011;3207;42.648;23.406;2023-03-23T10:17:41;6.63;;;5.63;;
6348;SDS011;3207;42.648;23.406;2023-03-23T10:20:19;5.72;;;5.20;;
6348;SDS011;3207;42.648;23.406;2023-03-23T10:22:55;5.95;;;5.22;;
6348;SDS011;3207;42.648;23.406;2023-03-23T10:25:29;5.25;;;4.85;;
6348;SDS011;3207;42.648;23.406;2023-03-23T10:27:59;5.20;;;4.22;;
6348;SDS011;3207;42.648;23.406;2023-03-23T10:30:31;6.38;;;4.25;;
6348;SDS011;3207;42.648;23.406;2023-03-23T10:33:02;5.22;;;4.72;;
6348;SDS011;3207;42.648;23.406;2023-03-23T10:35:38;4.53;;;4.13;;
6348;SDS011;3207;42.648;23.406;2023-03-23T10:38:11;4.05;;;3.75;;
6348;SDS011;3207;42.648;23.406;2023-03-23T10:40:45;4.30;;;3.60;;
6348;SDS011;3207;42.648;23.406;2023-03-23T10:43:16;5.53;;;4.35;;
6348;SDS011;3207;42.648;23.406;2023-03-23T10:45:43;6.13;;;5.53;;
6348;SDS011;3207;42.648;23.406;2023-03-23T10:48:14;7.00;;;6.40;;
6348;SDS011;3207;42.648;23.406;2023-03-23T10:50:51;12.43;;;7.10;;
6348;SDS011;3207;42.648;23.406;2023-03-23T10:53:23;5.13;;;4.63;;
6348;SDS011;3207;42.648;23.406;2023-03-23T10:55:54;7.05;;;5.65;;
6348;SDS011;3207;42.648;23.406;2023-03-23T10:58:24;5.80;;;5.22;;
6348;SDS011;3207;42.648;23.406;2023-03-23T11:00:54;5.88;;;5.28;;
6348;SDS011;3207;42.648;23.406;2023-03-23T11:03:29;6.68;;;5.68;;
6348;SDS011;3207;42.648;23.406;2023-03-23T11:06:06;5.93;;;5.43;;
6348;SDS011;3207;42.648;23.406;2023-03-23T11:08:38;6.63;;;6.03;;
6348;SDS011;3207;42.648;23.406;2023-03-23T11:11:15;6.35;;;5.80;;
6348;SDS011;3207;42.648;23.406;2023-03-23T11:13:44;7.85;;;7.07;;
6348;SDS011;3207;42.648;23.406;2023-03-23T11:16:21;7.07;;;6.47;;
6348;SDS011;3207;42.648;23.406;2023-03-23T11:18:49;6.50;;;5.75;;
6348;SDS011;3207;42.648;23.406;2023-03-23T11:21:17;5.82;;;5.32;;
6348;SDS011;3207;42.648;23.406;2023-03-23T11:23:48;7.55;;;6.85;;
6348;SDS011;3207;42.648;23.406;2023-03-23T11:26:20;7.95;;;6.03;;
6348;SDS011;3207;42.648;23.406;2023-03-23T11:28:53;6.80;;;6.13;;
6348;SDS011;3207;42.648;23.406;2023-03-23T11:31:23;6.80;;;6.20;;
6348;SDS011;3207;42.648;23.406;2023-03-23T11:33:57;10.73;;;6.25;;
6348;SDS011;3207;42.648;23.406;2023-03-23T11:36:30;7.00;;;6.40;;
6348;SDS011;3207;42.648;23.406;2023-03-23T11:39:01;7.68;;;6.88;;
6348;SDS011;3207;42.648;23.406;2023-03-23T11:41:33;7.97;;;6.55;;
6348;SDS011;3207;42.648;23.406;2023-03-23T11:44:09;6.80;;;6.18;;
6348;SDS011;3207;42.648;23.406;2023-03-23T11:46:40;7.15;;;6.55;;
6348;SDS011;3207;42.648;23.406;2023-03-23T11:49:15;6.55;;;6.03;;
6348;SDS011;3207;42.648;23.406;2023-03-23T11:51:48;6.13;;;5.63;;
6348;SDS011;3207;42.648;23.406;2023-03-23T11:54:19;7.03;;;6.32;;
6348;SDS011;3207;42.648;23.406;2023-03-23T11:56:51;9.23;;;6.40;;
6348;SDS011;3207;42.648;23.406;2023-03-23T11:59:26;6.72;;;6.13;;
6348;SDS011;3207;42.648;23.406;2023-03-23T12:01:55;7.03;;;6.43;;
6348;SDS011;3207;42.648;23.406;2023-03-23T12:04:40;6.60;;;5.50;;
6348;SDS011;3207;42.648;23.406;2023-03-23T12:07:22;8.95;;;6.35;;
6348;SDS011;3207;42.648;23.406;2023-03-23T12:10:01;7.35;;;6.47;;
6348;SDS011;3207;42.648;23.406;2023-03-23T12:12:38;9.15;;;6.93;;
6348;SDS011;3207;42.648;23.406;2023-03-23T12:15:14;10.20;;;6.43;;
6348;SDS011;3207;42.648;23.406;2023-03-23T12:17:51;7.88;;;6.65;;
6348;SDS011;3207;42.648;23.406;2023-03-23T12:20:31;7.13;;;6.43;;
6348;SDS011;3207;42.648;23.406;2023-03-23T12:23:11;6.78;;;6.22;;
6348;SDS011;3207;42.648;23.406;2023-03-23T12:25:54;8.95;;;6.78;;
6348;SDS011;3207;42.648;23.406;2023-03-23T12:28:53;7.55;;;6.30;;
6348;SDS011;3207;42.648;23.406;2023-03-23T12:31:35;6.45;;;5.95;;
6348;SDS011;3207;42.648;23.406;2023-03-23T12:34:10;8.43;;;6.30;;
6348;SDS011;3207;42.648;23.406;2023-03-23T12:36:47;8.45;;;5.10;;
6348;SDS011;3207;42.648;23.406;2023-03-23T12:39:34;7.82;;;5.90;;
6348;SDS011;3207;42.648;23.406;2023-03-23T12:42:16;6.53;;;5.82;;
6348;SDS011;3207;42.648;23.406;2023-03-23T12:44:52;7.65;;;6.38;;
6348;SDS011;3207;42.648;23.406;2023-03-23T12:47:27;6.60;;;5.45;;
6348;SDS011;3207;42.648;23.406;2023-03-23T12:50:01;5.90;;;5.40;;
6348;SDS011;3207;42.648;23.406;2023-03-23T12:52:36;7.03;;;5.47;;
6348;SDS011;3207;42.648;23.406;2023-03-23T12:55:13;5.70;;;5.30;;
6348;SDS011;3207;42.648;23.406;2023-03-23T12:57:46;6.10;;;5.47;;
6348;SDS011;3207;42.648;23.406;2023-03-23T13:00:20;5.50;;;4.90;;
6348;SDS011;3207;42.648;23.406;2023-03-23T13:03:02;7.53;;;5.53;;
6348;SDS011;3207;42.648;23.406;2023-03-23T13:05:35;7.22;;;5.47;;
6348;SDS011;3207;42.648;23.406;2023-03-23T13:08:09;6.45;;;5.78;;
6348;SDS011;3207;42.648;23.406;2023-03-23T13:10:42;7.03;;;6.32;;
6348;SDS011;3207;42.648;23.406;2023-03-23T13:13:16;5.85;;;5.32;;
6348;SDS011;3207;42.648;23.406;2023-03-23T13:15:57;5.05;;;4.65;;
6348;SDS011;3207;42.648;23.406;2023-03-23T13:18:34;4.97;;;4.55;;
6348;SDS011;3207;42.648;23.406;2023-03-23T13:21:11;5.32;;;4.82;;
6348;SDS011;3207;42.648;23.406;2023-03-23T13:23:44;6.55;;;5.05;;
6348;SDS011;3207;42.648;23.406;2023-03-23T13:26:14;4.95;;;4.38;;
6348;SDS011;3207;42.648;23.406;2023-03-23T13:28:51;5.93;;;4.13;;
6348;SDS011;3207;42.648;23.406;2023-03-23T13:31:23;4.75;;;4.43;;
6348;SDS011;3207;42.648;23.406;2023-03-23T13:33:58;5.13;;;4.63;;
6348;SDS011;3207;42.648;23.406;2023-03-23T13:36:29;5.45;;;4.53;;
6348;SDS011;3207;42.648;23.406;2023-03-23T13:38:58;9.15;;;4.93;;
6348;SDS011;3207;42.648;23.406;2023-03-23T13:41:27;4.70;;;3.83;;
6348;SDS011;3207;42.648;23.406;2023-03-23T13:44:06;4.63;;;4.22;;
6348;SDS011;3207;42.648;23.406;2023-03-23T13:46:53;4.55;;;4.15;;
6348;SDS011;3207;42.648;23.406;2023-03-23T13:49:21;7.45;;;4.03;;
6348;SDS011;3207;42.648;23.406;2023-03-23T13:51:59;5.18;;;4.15;;
6348;SDS011;3207;42.648;23.406;2023-03-23T13:54:38;4.18;;;3.65;;
6348;SDS011;3207;42.648;23.406;2023-03-23T13:57:34;4.47;;;4.07;;
6348;SDS011;3207;42.648;23.406;2023-03-23T14:00:22;5.40;;;4.90;;
6348;SDS011;3207;42.648;23.406;2023-03-23T14:03:02;4.97;;;4.55;;
6348;SDS011;3207;42.648;23.406;2023-03-23T14:05:34;6.85;;;4.82;;
6348;SDS011;3207;42.648;23.406;2023-03-23T14:08:03;7.30;;;4.85;;
6348;SDS011;3207;42.648;23.406;2023-03-23T14:10:39;6.20;;;4.50;;
6348;SDS011;3207;42.648;23.406;2023-03-23T14:13:14;4.88;;;4.38;;
6348;SDS011;3207;42.648;23.406;2023-03-23T14:15:54;8.95;;;4.78;;
6348;SDS011;3207;42.648;23.406;2023-03-23T14:18:24;5.00;;;4.55;;
6348;SDS011;3207;42.648;23.406;2023-03-23T14:20:53;5.90;;;5.45;;
6348;SDS011;3207;42.648;23.406;2023-03-23T14:23:22;7.13;;;5.00;;
6348;SDS011;3207;42.648;23.406;2023-03-23T14:25:56;4.65;;;4.35;;
6348;SDS011;3207;42.648;23.406;2023-03-23T14:28:31;4.55;;;4.15;;
6348;SDS011;3207;42.648;23.406;2023-03-23T14:31:00;6.78;;;4.90;;
6348;SDS011;3207;42.648;23.406;2023-03-23T14:33:27;5.85;;;4.72;;
6348;SDS011;3207;42.648;23.406;2023-03-23T14:35:54;7.35;;;4.38;;
6348;SDS011;3207;42.648;23.406;2023-03-23T14:38:24;8.85;;;4.57;;
6348;SDS011;3207;42.648;23.406;2023-03-23T14:40:59;4.20;;;3.90;;
6348;SDS011;3207;42.648;23.406;2023-03-23T14:43:28;5.68;;;5.00;;
6348;SDS011;3207;42.648;23.406;2023-03-23T14:45:58;4.38;;;4.00;;
6348;SDS011;3207;42.648;23.406;2023-03-23T14:48:28;6.32;;;4.28;;
6348;SDS011;3207;42.648;23.406;2023-03-23T14:50:56;5.97;;;3.97;;
6348;SDS011;3207;42.648;23.406;2023-03-23T14:53:25;8.30;;;3.70;;
6348;SDS011;3207;42.648;23.406;2023-03-23T14:55:59;4.65;;;4.15;;
6348;SDS011;3207;42.648;23.406;2023-03-23T14:58:27;4.35;;;3.95;;
6348;SDS011;3207;42.648;23.406;2023-03-23T15:00:57;4.53;;;4.13;;
6348;SDS011;3207;42.648;23.406;2023-03-23T15:03:31;4.68;;;3.85;;
6348;SDS011;3207;42.648;23.406;2023-03-23T15:06:04;6.30;;;4.25;;
6348;SDS011;3207;42.648;23.406;2023-03-23T15:08:35;4.72;;;4.20;;
6348;SDS011;3207;42.648;23.406;2023-03-23T15:11:05;4.70;;;4.20;;
6348;SDS011;3207;42.648;23.406;2023-03-23T15:13:34;6.80;;;5.03;;
6348;SDS011;3207;42.648;23.406;2023-03-23T15:16:05;4.45;;;3.90;;
6348;SDS011;3207;42.648;23.406;2023-03-23T15:18:38;6.43;;;5.05;;
6348;SDS011;3207;42.648;23.406;2023-03-23T15:21:10;7.43;;;4.72;;
6348;SDS011;3207;42.648;23.406;2023-03-23T15:23:45;6.00;;;5.40;;
6348;SDS011;3207;42.648;23.406;2023-03-23T15:26:26;5.85;;;5.35;;